sensor_id;sensor_type;location;lat;lon;timestamp;P1;durP1;ratioP1;P2;durP2;ratioP2
44328;SDS011;30039;51.462;6.892;2022-08-19T00:02:12;7.63;;;3.70;;
44328;SDS011;30039;51.462;6.892;2022-08-19T00:04:57;5.40;;;4.10;;
44328;SDS011;30039;51.462;6.892;2022-08-19T00:07:43;5.47;;;3.55;;
44328;SDS011;30039;51.462;6.892;2022-08-19T00:10:30;5.25;;;3.35;;
44328;SDS011;30039;51.462;6.892;2022-08-19T00:13:15;4.82;;;3.60;;
44328;SDS011;30039;51.462;6.892;2022-08-19T00:16:01;6.05;;;3.63;;
44328;SDS011;30039;51.462;6.892;2022-08-19T00:18:47;5.75;;;3.55;;
44328;SDS011;30039;51.462;6.892;2022-08-19T00:21:33;6.82;;;3.67;;
44328;SDS011;30039;51.462;6.892;2022-08-19T00:24:24;5.57;;;4.10;;
44328;SDS011;30039;51.462;6.892;2022-08-19T00:27:14;7.03;;;3.67;;
44328;SDS011;30039;51.462;6.892;2022-08-19T00:30:00;5.93;;;3.50;;
44328;SDS011;30039;51.462;6.892;2022-08-19T00:32:49;5.78;;;4.10;;
44328;SDS011;30039;51.462;6.892;2022-08-19T00:35:36;5.38;;;4.15;;
44328;SDS011;30039;51.462;6.892;2022-08-19T00:38:25;6.85;;;3.90;;
44328;SDS011;30039;51.462;6.892;2022-08-19T00:41:12;5.55;;;4.00;;
44328;SDS011;30039;51.462;6.892;2022-08-19T00:46:45;5.38;;;3.90;;
44328;SDS011;30039;51.462;6.892;2022-08-19T00:49:34;5.65;;;4.20;;
44328;SDS011;30039;51.462;6.892;2022-08-19T00:52:28;6.07;;;4.25;;
44328;SDS011;30039;51.462;6.892;2022-08-19T00:55:25;9.35;;;4.45;;
44328;SDS011;30039;51.462;6.892;2022-08-19T00:58:19;5.55;;;4.10;;
44328;SDS011;30039;51.462;6.892;2022-08-19T01:01:05;5.65;;;4.00;;
44328;SDS011;30039;51.462;6.892;2022-08-19T01:03:50;5.40;;;3.88;;
44328;SDS011;30039;51.462;6.892;2022-08-19T01:06:37;7.38;;;4.15;;
44328;SDS011;30039;51.462;6.892;2022-08-19T01:09:23;4.93;;;3.75;;
44328;SDS011;30039;51.462;6.892;2022-08-19T01:12:12;6.35;;;3.97;;
44328;SDS011;30039;51.462;6.892;2022-08-19T01:14:58;11.50;;;4.38;;
44328;SDS011;30039;51.462;6.892;2022-08-19T01:17:45;6.57;;;3.92;;
44328;SDS011;30039;51.462;6.892;2022-08-19T01:20:31;7.78;;;4.00;;
44328;SDS011;30039;51.462;6.892;2022-08-19T01:23:21;6.93;;;4.47;;
44328;SDS011;30039;51.462;6.892;2022-08-19T01:26:11;7.18;;;4.05;;
44328;SDS011;30039;51.462;6.892;2022-08-19T01:28:59;8.15;;;4.50;;
44328;SDS011;30039;51.462;6.892;2022-08-19T01:31:49;6.32;;;4.85;;
44328;SDS011;30039;51.462;6.892;2022-08-19T01:34:37;9.65;;;4.57;;
44328;SDS011;30039;51.462;6.892;2022-08-19T01:37:23;5.97;;;4.22;;
44328;SDS011;30039;51.462;6.892;2022-08-19T01:40:10;6.43;;;4.63;;
44328;SDS011;30039;51.462;6.892;2022-08-19T01:42:59;7.32;;;4.70;;
44328;SDS011;30039;51.462;6.892;2022-08-19T01:45:45;7.55;;;4.93;;
44328;SDS011;30039;51.462;6.892;2022-08-19T01:48:36;5.47;;;4.55;;
44328;SDS011;30039;51.462;6.892;2022-08-19T01:51:21;5.40;;;4.45;;
44328;SDS011;30039;51.462;6.892;2022-08-19T01:54:08;6.43;;;4.82;;
44328;SDS011;30039;51.462;6.892;2022-08-19T01:56:55;7.90;;;4.65;;
44328;SDS011;30039;51.462;6.892;2022-08-19T01:59:42;7.93;;;5.13;;
44328;SDS011;30039;51.462;6.892;2022-08-19T02:02:29;6.50;;;4.90;;
44328;SDS011;30039;51.462;6.892;2022-08-19T02:05:15;5.97;;;4.80;;
44328;SDS011;30039;51.462;6.892;2022-08-19T02:08:04;6.65;;;4.90;;
44328;SDS011;30039;51.462;6.892;2022-08-19T02:10:51;9.13;;;5.38;;
44328;SDS011;30039;51.462;6.892;2022-08-19T02:13:36;7.72;;;5.20;;
44328;SDS011;30039;51.462;6.892;2022-08-19T02:16:23;8.48;;;5.25;;
44328;SDS011;30039;51.462;6.892;2022-08-19T02:19:09;7.80;;;5.38;;
44328;SDS011;30039;51.462;6.892;2022-08-19T02:21:56;9.45;;;5.78;;
44328;SDS011;30039;51.462;6.892;2022-08-19T02:24:42;8.73;;;5.68;;
44328;SDS011;30039;51.462;6.892;2022-08-19T02:27:28;9.65;;;5.65;;
44328;SDS011;30039;51.462;6.892;2022-08-19T02:30:15;7.75;;;5.63;;
44328;SDS011;30039;51.462;6.892;2022-08-19T02:33:09;7.78;;;5.35;;
44328;SDS011;30039;51.462;6.892;2022-08-19T02:35:56;9.05;;;6.20;;
44328;SDS011;30039;51.462;6.892;2022-08-19T02:38:43;9.15;;;6.57;;
44328;SDS011;30039;51.462;6.892;2022-08-19T02:41:36;12.48;;;6.75;;
44328;SDS011;30039;51.462;6.892;2022-08-19T02:44:21;10.07;;;6.32;;
44328;SDS011;30039;51.462;6.892;2022-08-19T02:47:07;10.15;;;6.13;;
44328;SDS011;30039;51.462;6.892;2022-08-19T02:49:52;10.00;;;6.20;;
44328;SDS011;30039;51.462;6.892;2022-08-19T02:52:38;11.10;;;6.22;;
44328;SDS011;30039;51.462;6.892;2022-08-19T02:55:23;8.20;;;6.43;;
44328;SDS011;30039;51.462;6.892;2022-08-19T02:58:12;8.02;;;6.03;;
44328;SDS011;30039;51.462;6.892;2022-08-19T03:00:58;9.20;;;6.45;;
44328;SDS011;30039;51.462;6.892;2022-08-19T03:03:43;9.25;;;6.15;;
44328;SDS011;30039;51.462;6.892;2022-08-19T03:06:35;8.63;;;6.03;;
44328;SDS011;30039;51.462;6.892;2022-08-19T03:09:21;10.18;;;6.53;;
44328;SDS011;30039;51.462;6.892;2022-08-19T03:12:09;8.75;;;6.60;;
44328;SDS011;30039;51.462;6.892;2022-08-19T03:15:01;9.38;;;5.95;;
44328;SDS011;30039;51.462;6.892;2022-08-19T03:17:46;7.97;;;6.55;;
44328;SDS011;30039;51.462;6.892;2022-08-19T03:20:32;10.30;;;6.18;;
44328;SDS011;30039;51.462;6.892;2022-08-19T03:23:21;6.82;;;5.68;;
44328;SDS011;30039;51.462;6.892;2022-08-19T03:26:07;8.43;;;6.38;;
44328;SDS011;30039;51.462;6.892;2022-08-19T03:28:54;7.50;;;5.97;;
44328;SDS011;30039;51.462;6.892;2022-08-19T03:31:41;10.60;;;5.18;;
44328;SDS011;30039;51.462;6.892;2022-08-19T03:34:28;7.82;;;6.10;;
44328;SDS011;30039;51.462;6.892;2022-08-19T03:37:15;8.60;;;5.78;;
44328;SDS011;30039;51.462;6.892;2022-08-19T03:40:01;8.88;;;6.32;;
44328;SDS011;30039;51.462;6.892;2022-08-19T03:42:51;7.05;;;5.45;;
44328;SDS011;30039;51.462;6.892;2022-08-19T03:45:36;9.70;;;5.68;;
44328;SDS011;30039;51.462;6.892;2022-08-19T03:48:24;8.88;;;6.30;;
44328;SDS011;30039;51.462;6.892;2022-08-19T03:51:18;9.48;;;5.80;;
44328;SDS011;30039;51.462;6.892;2022-08-19T03:54:06;9.43;;;5.90;;
44328;SDS011;30039;51.462;6.892;2022-08-19T03:56:54;7.10;;;5.28;;
44328;SDS011;30039;51.462;6.892;2022-08-19T03:59:41;8.68;;;5.93;;
44328;SDS011;30039;51.462;6.892;2022-08-19T04:02:27;7.53;;;5.88;;
44328;SDS011;30039;51.462;6.892;2022-08-19T04:05:12;7.15;;;5.25;;
44328;SDS011;30039;51.462;6.892;2022-08-19T04:08:00;10.82;;;6.47;;
44328;SDS011;30039;51.462;6.892;2022-08-19T04:10:46;8.43;;;5.93;;
44328;SDS011;30039;51.462;6.892;2022-08-19T04:13:32;7.90;;;5.95;;
44328;SDS011;30039;51.462;6.892;2022-08-19T04:16:20;9.75;;;5.40;;
44328;SDS011;30039;51.462;6.892;2022-08-19T04:19:06;7.97;;;5.85;;
44328;SDS011;30039;51.462;6.892;2022-08-19T04:21:52;8.60;;;6.07;;
44328;SDS011;30039;51.462;6.892;2022-08-19T04:24:39;8.93;;;5.88;;
44328;SDS011;30039;51.462;6.892;2022-08-19T04:27:26;11.63;;;6.60;;
44328;SDS011;30039;51.462;6.892;2022-08-19T04:30:12;11.20;;;6.22;;
44328;SDS011;30039;51.462;6.892;2022-08-19T04:33:04;8.02;;;5.90;;
44328;SDS011;30039;51.462;6.892;2022-08-19T04:35:51;9.20;;;6.38;;
44328;SDS011;30039;51.462;6.892;2022-08-19T04:38:36;9.90;;;7.07;;
44328;SDS011;30039;51.462;6.892;2022-08-19T04:41:22;9.02;;;6.82;;
44328;SDS011;30039;51.462;6.892;2022-08-19T04:44:27;11.57;;;7.38;;
44328;SDS011;30039;51.462;6.892;2022-08-19T04:47:16;10.48;;;7.40;;
44328;SDS011;30039;51.462;6.892;2022-08-19T04:53:20;12.65;;;6.75;;
44328;SDS011;30039;51.462;6.892;2022-08-19T04:56:24;12.45;;;8.10;;
44328;SDS011;30039;51.462;6.892;2022-08-19T04:59:13;12.30;;;7.90;;
44328;SDS011;30039;51.462;6.892;2022-08-19T05:02:07;11.63;;;8.13;;
44328;SDS011;30039;51.462;6.892;2022-08-19T05:04:57;11.95;;;8.23;;
44328;SDS011;30039;51.462;6.892;2022-08-19T05:07:43;15.07;;;8.68;;
44328;SDS011;30039;51.462;6.892;2022-08-19T05:10:34;13.85;;;7.95;;
44328;SDS011;30039;51.462;6.892;2022-08-19T05:13:33;18.27;;;8.90;;
44328;SDS011;30039;51.462;6.892;2022-08-19T05:16:25;19.98;;;8.57;;
44328;SDS011;30039;51.462;6.892;2022-08-19T05:19:11;14.10;;;8.45;;
44328;SDS011;30039;51.462;6.892;2022-08-19T05:22:18;14.75;;;9.10;;
44328;SDS011;30039;51.462;6.892;2022-08-19T05:25:42;15.00;;;10.32;;
44328;SDS011;30039;51.462;6.892;2022-08-19T05:28:32;14.57;;;10.05;;
44328;SDS011;30039;51.462;6.892;2022-08-19T05:31:19;16.02;;;10.18;;
44328;SDS011;30039;51.462;6.892;2022-08-19T05:34:05;15.23;;;9.77;;
44328;SDS011;30039;51.462;6.892;2022-08-19T05:36:55;13.98;;;9.77;;
44328;SDS011;30039;51.462;6.892;2022-08-19T05:39:42;13.18;;;9.60;;
44328;SDS011;30039;51.462;6.892;2022-08-19T05:42:50;16.50;;;9.48;;
44328;SDS011;30039;51.462;6.892;2022-08-19T05:45:51;15.27;;;9.75;;
44328;SDS011;30039;51.462;6.892;2022-08-19T05:48:38;15.85;;;10.57;;
44328;SDS011;30039;51.462;6.892;2022-08-19T05:51:24;14.95;;;10.32;;
44328;SDS011;30039;51.462;6.892;2022-08-19T05:54:14;15.68;;;10.60;;
44328;SDS011;30039;51.462;6.892;2022-08-19T06:00:26;19.35;;;11.18;;
44328;SDS011;30039;51.462;6.892;2022-08-19T06:03:11;15.38;;;11.07;;
44328;SDS011;30039;51.462;6.892;2022-08-19T06:05:57;18.67;;;11.18;;
44328;SDS011;30039;51.462;6.892;2022-08-19T06:08:50;19.65;;;11.68;;
44328;SDS011;30039;51.462;6.892;2022-08-19T06:11:38;19.95;;;11.52;;
44328;SDS011;30039;51.462;6.892;2022-08-19T06:14:25;16.08;;;12.15;;
44328;SDS011;30039;51.462;6.892;2022-08-19T06:17:11;21.42;;;12.85;;
44328;SDS011;30039;51.462;6.892;2022-08-19T06:20:06;21.02;;;12.43;;
44328;SDS011;30039;51.462;6.892;2022-08-19T06:22:52;19.52;;;12.82;;
44328;SDS011;30039;51.462;6.892;2022-08-19T06:25:49;18.70;;;13.13;;
44328;SDS011;30039;51.462;6.892;2022-08-19T06:28:40;22.00;;;13.60;;
44328;SDS011;30039;51.462;6.892;2022-08-19T06:31:49;19.15;;;13.27;;
44328;SDS011;30039;51.462;6.892;2022-08-19T06:34:35;21.75;;;14.20;;
44328;SDS011;30039;51.462;6.892;2022-08-19T06:37:22;26.30;;;13.82;;
44328;SDS011;30039;51.462;6.892;2022-08-19T06:40:08;24.48;;;14.10;;
44328;SDS011;30039;51.462;6.892;2022-08-19T06:42:59;22.98;;;14.48;;
44328;SDS011;30039;51.462;6.892;2022-08-19T06:45:47;23.95;;;16.23;;
44328;SDS011;30039;51.462;6.892;2022-08-19T06:48:34;23.20;;;15.52;;
44328;SDS011;30039;51.462;6.892;2022-08-19T06:51:21;25.42;;;15.50;;
44328;SDS011;30039;51.462;6.892;2022-08-19T06:54:11;29.38;;;15.68;;
44328;SDS011;30039;51.462;6.892;2022-08-19T06:56:57;25.48;;;16.02;;
44328;SDS011;30039;51.462;6.892;2022-08-19T06:59:44;23.05;;;15.10;;
44328;SDS011;30039;51.462;6.892;2022-08-19T07:02:32;28.90;;;16.65;;
44328;SDS011;30039;51.462;6.892;2022-08-19T07:05:18;23.90;;;16.27;;
44328;SDS011;30039;51.462;6.892;2022-08-19T07:08:10;26.67;;;15.95;;
44328;SDS011;30039;51.462;6.892;2022-08-19T07:11:06;25.65;;;16.60;;
44328;SDS011;30039;51.462;6.892;2022-08-19T07:13:57;25.63;;;16.70;;
44328;SDS011;30039;51.462;6.892;2022-08-19T07:16:42;25.23;;;17.58;;
44328;SDS011;30039;51.462;6.892;2022-08-19T07:19:30;29.23;;;16.55;;
44328;SDS011;30039;51.462;6.892;2022-08-19T07:22:17;24.60;;;16.65;;
44328;SDS011;30039;51.462;6.892;2022-08-19T07:25:13;25.92;;;16.50;;
44328;SDS011;30039;51.462;6.892;2022-08-19T07:27:59;25.20;;;17.02;;
44328;SDS011;30039;51.462;6.892;2022-08-19T07:30:46;25.13;;;16.48;;
44328;SDS011;30039;51.462;6.892;2022-08-19T07:33:38;28.95;;;17.92;;
44328;SDS011;30039;51.462;6.892;2022-08-19T07:36:26;24.25;;;17.33;;
44328;SDS011;30039;51.462;6.892;2022-08-19T07:39:28;27.75;;;17.77;;
44328;SDS011;30039;51.462;6.892;2022-08-19T07:42:16;30.02;;;19.40;;
44328;SDS011;30039;51.462;6.892;2022-08-19T07:45:07;29.08;;;18.45;;
44328;SDS011;30039;51.462;6.892;2022-08-19T07:47:55;29.42;;;18.98;;
44328;SDS011;30039;51.462;6.892;2022-08-19T07:50:41;27.67;;;18.52;;
44328;SDS011;30039;51.462;6.892;2022-08-19T07:53:27;26.42;;;18.45;;
44328;SDS011;30039;51.462;6.892;2022-08-19T07:56:13;27.33;;;19.13;;
44328;SDS011;30039;51.462;6.892;2022-08-19T07:59:02;26.42;;;18.20;;
44328;SDS011;30039;51.462;6.892;2022-08-19T08:01:50;24.63;;;16.75;;
44328;SDS011;30039;51.462;6.892;2022-08-19T08:04:36;28.80;;;18.23;;
44328;SDS011;30039;51.462;6.892;2022-08-19T08:07:40;24.42;;;17.90;;
44328;SDS011;30039;51.462;6.892;2022-08-19T08:13:34;23.70;;;16.15;;
44328;SDS011;30039;51.462;6.892;2022-08-19T08:16:20;27.17;;;17.33;;
44328;SDS011;30039;51.462;6.892;2022-08-19T08:19:19;25.25;;;17.90;;
44328;SDS011;30039;51.462;6.892;2022-08-19T08:25:44;24.67;;;16.48;;
44328;SDS011;30039;51.462;6.892;2022-08-19T08:28:43;21.15;;;14.55;;
44328;SDS011;30039;51.462;6.892;2022-08-19T08:31:31;24.15;;;15.73;;
44328;SDS011;30039;51.462;6.892;2022-08-19T08:34:18;27.15;;;16.05;;
44328;SDS011;30039;51.462;6.892;2022-08-19T08:37:03;26.45;;;16.60;;
44328;SDS011;30039;51.462;6.892;2022-08-19T08:39:49;23.58;;;16.33;;
44328;SDS011;30039;51.462;6.892;2022-08-19T08:42:39;23.63;;;14.27;;
44328;SDS011;30039;51.462;6.892;2022-08-19T08:45:29;18.88;;;12.52;;
44328;SDS011;30039;51.462;6.892;2022-08-19T08:51:23;19.65;;;11.88;;
44328;SDS011;30039;51.462;6.892;2022-08-19T08:54:10;15.05;;;10.70;;
44328;SDS011;30039;51.462;6.892;2022-08-19T08:56:57;17.73;;;10.80;;
44328;SDS011;30039;51.462;6.892;2022-08-19T08:59:43;13.35;;;9.85;;
44328;SDS011;30039;51.462;6.892;2022-08-19T09:02:31;14.75;;;9.27;;
44328;SDS011;30039;51.462;6.892;2022-08-19T09:05:19;13.48;;;8.90;;
44328;SDS011;30039;51.462;6.892;2022-08-19T09:11:14;10.75;;;7.43;;
44328;SDS011;30039;51.462;6.892;2022-08-19T09:17:32;10.85;;;8.27;;
44328;SDS011;30039;51.462;6.892;2022-08-19T09:20:20;12.23;;;8.15;;
44328;SDS011;30039;51.462;6.892;2022-08-19T09:23:06;12.35;;;8.65;;
44328;SDS011;30039;51.462;6.892;2022-08-19T09:25:53;15.85;;;7.93;;
44328;SDS011;30039;51.462;6.892;2022-08-19T09:28:42;9.23;;;7.18;;
44328;SDS011;30039;51.462;6.892;2022-08-19T09:31:29;11.18;;;7.68;;
44328;SDS011;30039;51.462;6.892;2022-08-19T09:34:15;16.27;;;7.50;;
44328;SDS011;30039;51.462;6.892;2022-08-19T09:37:00;12.95;;;7.85;;
44328;SDS011;30039;51.462;6.892;2022-08-19T09:39:46;12.98;;;8.80;;
44328;SDS011;30039;51.462;6.892;2022-08-19T09:42:33;13.35;;;8.80;;
44328;SDS011;30039;51.462;6.892;2022-08-19T09:45:20;14.68;;;9.27;;
44328;SDS011;30039;51.462;6.892;2022-08-19T09:48:08;14.63;;;9.57;;
44328;SDS011;30039;51.462;6.892;2022-08-19T09:50:54;13.73;;;8.48;;
44328;SDS011;30039;51.462;6.892;2022-08-19T09:53:44;13.20;;;9.48;;
44328;SDS011;30039;51.462;6.892;2022-08-19T09:56:31;16.85;;;10.30;;
44328;SDS011;30039;51.462;6.892;2022-08-19T09:59:17;14.07;;;10.23;;
44328;SDS011;30039;51.462;6.892;2022-08-19T10:02:11;21.25;;;13.52;;
44328;SDS011;30039;51.462;6.892;2022-08-19T10:04:57;15.30;;;11.02;;
44328;SDS011;30039;51.462;6.892;2022-08-19T10:08:01;16.77;;;12.98;;
44328;SDS011;30039;51.462;6.892;2022-08-19T10:10:48;18.85;;;12.88;;
44328;SDS011;30039;51.462;6.892;2022-08-19T10:13:33;19.63;;;13.10;;
44328;SDS011;30039;51.462;6.892;2022-08-19T10:16:23;15.73;;;11.13;;
44328;SDS011;30039;51.462;6.892;2022-08-19T10:19:09;17.17;;;11.57;;
44328;SDS011;30039;51.462;6.892;2022-08-19T10:21:55;17.77;;;12.00;;
44328;SDS011;30039;51.462;6.892;2022-08-19T10:24:53;18.70;;;12.50;;
44328;SDS011;30039;51.462;6.892;2022-08-19T10:27:42;20.98;;;12.27;;
44328;SDS011;30039;51.462;6.892;2022-08-19T10:30:28;17.83;;;11.98;;
44328;SDS011;30039;51.462;6.892;2022-08-19T10:33:14;17.65;;;10.93;;
44328;SDS011;30039;51.462;6.892;2022-08-19T10:36:01;19.75;;;12.90;;
44328;SDS011;30039;51.462;6.892;2022-08-19T10:38:56;20.92;;;14.32;;
44328;SDS011;30039;51.462;6.892;2022-08-19T10:41:43;18.00;;;12.60;;
44328;SDS011;30039;51.462;6.892;2022-08-19T10:44:31;18.17;;;12.68;;
44328;SDS011;30039;51.462;6.892;2022-08-19T10:47:19;19.17;;;12.07;;
44328;SDS011;30039;51.462;6.892;2022-08-19T10:50:08;19.05;;;13.15;;
44328;SDS011;30039;51.462;6.892;2022-08-19T10:53:17;16.15;;;11.02;;
44328;SDS011;30039;51.462;6.892;2022-08-19T10:56:09;15.57;;;10.68;;
44328;SDS011;30039;51.462;6.892;2022-08-19T10:59:24;13.65;;;10.45;;
44328;SDS011;30039;51.462;6.892;2022-08-19T11:02:19;19.63;;;10.23;;
44328;SDS011;30039;51.462;6.892;2022-08-19T11:05:05;13.38;;;10.02;;
44328;SDS011;30039;51.462;6.892;2022-08-19T11:08:02;14.30;;;9.23;;
44328;SDS011;30039;51.462;6.892;2022-08-19T11:10:48;13.75;;;9.15;;
44328;SDS011;30039;51.462;6.892;2022-08-19T11:13:35;13.70;;;9.05;;
44328;SDS011;30039;51.462;6.892;2022-08-19T11:16:23;9.48;;;7.00;;
44328;SDS011;30039;51.462;6.892;2022-08-19T11:19:11;11.38;;;7.65;;
44328;SDS011;30039;51.462;6.892;2022-08-19T11:22:02;10.63;;;6.85;;
44328;SDS011;30039;51.462;6.892;2022-08-19T11:24:50;9.90;;;7.35;;
44328;SDS011;30039;51.462;6.892;2022-08-19T11:27:40;11.88;;;7.13;;
44328;SDS011;30039;51.462;6.892;2022-08-19T11:30:34;10.70;;;7.80;;
44328;SDS011;30039;51.462;6.892;2022-08-19T11:33:29;72.30;;;56.55;;
44328;SDS011;30039;51.462;6.892;2022-08-19T11:36:15;13.02;;;6.75;;
44328;SDS011;30039;51.462;6.892;2022-08-19T11:39:01;8.90;;;6.60;;
44328;SDS011;30039;51.462;6.892;2022-08-19T11:41:47;9.60;;;7.45;;
44328;SDS011;30039;51.462;6.892;2022-08-19T11:44:33;8.88;;;6.35;;
44328;SDS011;30039;51.462;6.892;2022-08-19T11:47:21;6.97;;;5.35;;
44328;SDS011;30039;51.462;6.892;2022-08-19T11:50:07;7.40;;;5.70;;
44328;SDS011;30039;51.462;6.892;2022-08-19T11:52:57;6.57;;;5.50;;
44328;SDS011;30039;51.462;6.892;2022-08-19T11:55:43;9.95;;;6.15;;
44328;SDS011;30039;51.462;6.892;2022-08-19T11:58:30;7.85;;;5.85;;
44328;SDS011;30039;51.462;6.892;2022-08-19T12:01:21;8.55;;;5.63;;
44328;SDS011;30039;51.462;6.892;2022-08-19T12:04:24;8.00;;;4.53;;
44328;SDS011;30039;51.462;6.892;2022-08-19T12:07:21;7.00;;;5.93;;
44328;SDS011;30039;51.462;6.892;2022-08-19T12:10:10;8.45;;;5.30;;
44328;SDS011;30039;51.462;6.892;2022-08-19T12:13:01;9.57;;;5.22;;
44328;SDS011;30039;51.462;6.892;2022-08-19T12:15:56;6.22;;;4.40;;
44328;SDS011;30039;51.462;6.892;2022-08-19T12:25:26;10.40;;;5.05;;
44328;SDS011;30039;51.462;6.892;2022-08-19T12:28:12;7.38;;;4.68;;
44328;SDS011;30039;51.462;6.892;2022-08-19T12:31:15;9.63;;;4.80;;
44328;SDS011;30039;51.462;6.892;2022-08-19T12:34:21;4.30;;;3.60;;
44328;SDS011;30039;51.462;6.892;2022-08-19T12:37:07;7.03;;;4.15;;
44328;SDS011;30039;51.462;6.892;2022-08-19T12:39:56;4.63;;;3.97;;
44328;SDS011;30039;51.462;6.892;2022-08-19T12:42:42;5.50;;;3.97;;
44328;SDS011;30039;51.462;6.892;2022-08-19T12:45:29;6.20;;;4.30;;
44328;SDS011;30039;51.462;6.892;2022-08-19T12:48:15;5.13;;;4.32;;
44328;SDS011;30039;51.462;6.892;2022-08-19T12:51:05;5.90;;;4.05;;
44328;SDS011;30039;51.462;6.892;2022-08-19T12:53:53;5.50;;;4.03;;
44328;SDS011;30039;51.462;6.892;2022-08-19T12:56:48;6.28;;;3.90;;
44328;SDS011;30039;51.462;6.892;2022-08-19T12:59:36;5.65;;;3.90;;
44328;SDS011;30039;51.462;6.892;2022-08-19T13:02:25;7.50;;;4.35;;
44328;SDS011;30039;51.462;6.892;2022-08-19T13:05:19;5.28;;;4.00;;
44328;SDS011;30039;51.462;6.892;2022-08-19T13:08:06;5.53;;;3.63;;
44328;SDS011;30039;51.462;6.892;2022-08-19T13:10:53;5.35;;;3.72;;
44328;SDS011;30039;51.462;6.892;2022-08-19T13:13:41;4.53;;;3.40;;
44328;SDS011;30039;51.462;6.892;2022-08-19T13:16:30;5.22;;;3.72;;
44328;SDS011;30039;51.462;6.892;2022-08-19T13:19:20;5.32;;;3.53;;
44328;SDS011;30039;51.462;6.892;2022-08-19T13:22:08;5.25;;;3.47;;
44328;SDS011;30039;51.462;6.892;2022-08-19T13:24:53;4.10;;;3.13;;
44328;SDS011;30039;51.462;6.892;2022-08-19T13:27:42;4.40;;;3.13;;
44328;SDS011;30039;51.462;6.892;2022-08-19T13:30:29;5.60;;;3.40;;
44328;SDS011;30039;51.462;6.892;2022-08-19T13:33:34;5.10;;;3.03;;
44328;SDS011;30039;51.462;6.892;2022-08-19T13:36:20;7.43;;;3.05;;
44328;SDS011;30039;51.462;6.892;2022-08-19T13:39:07;5.47;;;2.92;;
44328;SDS011;30039;51.462;6.892;2022-08-19T13:41:54;6.65;;;3.00;;
44328;SDS011;30039;51.462;6.892;2022-08-19T13:44:41;7.97;;;3.75;;
44328;SDS011;30039;51.462;6.892;2022-08-19T13:47:30;6.20;;;3.60;;
44328;SDS011;30039;51.462;6.892;2022-08-19T13:50:17;4.95;;;3.15;;
44328;SDS011;30039;51.462;6.892;2022-08-19T13:53:05;6.82;;;3.55;;
44328;SDS011;30039;51.462;6.892;2022-08-19T13:55:50;6.75;;;3.63;;
44328;SDS011;30039;51.462;6.892;2022-08-19T13:58:38;7.78;;;4.13;;
44328;SDS011;30039;51.462;6.892;2022-08-19T14:01:25;5.65;;;4.22;;
44328;SDS011;30039;51.462;6.892;2022-08-19T14:04:11;6.72;;;4.80;;
44328;SDS011;30039;51.462;6.892;2022-08-19T14:06:57;7.28;;;3.83;;
44328;SDS011;30039;51.462;6.892;2022-08-19T14:09:43;4.85;;;3.60;;
44328;SDS011;30039;51.462;6.892;2022-08-19T14:12:34;3.88;;;3.00;;
44328;SDS011;30039;51.462;6.892;2022-08-19T14:15:22;7.70;;;3.40;;
44328;SDS011;30039;51.462;6.892;2022-08-19T14:18:09;4.78;;;3.15;;
44328;SDS011;30039;51.462;6.892;2022-08-19T14:20:58;4.93;;;3.53;;
44328;SDS011;30039;51.462;6.892;2022-08-19T14:23:44;4.85;;;3.03;;
44328;SDS011;30039;51.462;6.892;2022-08-19T14:26:35;5.28;;;3.60;;
44328;SDS011;30039;51.462;6.892;2022-08-19T14:29:21;3.60;;;2.65;;
44328;SDS011;30039;51.462;6.892;2022-08-19T14:32:19;8.57;;;4.78;;
44328;SDS011;30039;51.462;6.892;2022-08-19T14:35:12;5.40;;;4.47;;
44328;SDS011;30039;51.462;6.892;2022-08-19T14:38:02;6.40;;;4.78;;
44328;SDS011;30039;51.462;6.892;2022-08-19T14:41:17;8.07;;;5.43;;
44328;SDS011;30039;51.462;6.892;2022-08-19T14:44:04;7.45;;;5.20;;
44328;SDS011;30039;51.462;6.892;2022-08-19T14:46:51;9.57;;;4.97;;
44328;SDS011;30039;51.462;6.892;2022-08-19T14:49:53;8.10;;;5.13;;
44328;SDS011;30039;51.462;6.892;2022-08-19T14:52:41;6.93;;;4.53;;
44328;SDS011;30039;51.462;6.892;2022-08-19T14:55:35;5.60;;;3.65;;
44328;SDS011;30039;51.462;6.892;2022-08-19T14:58:33;7.53;;;4.03;;
44328;SDS011;30039;51.462;6.892;2022-08-19T15:01:25;3.70;;;2.92;;
44328;SDS011;30039;51.462;6.892;2022-08-19T15:04:32;7.97;;;3.67;;
44328;SDS011;30039;51.462;6.892;2022-08-19T15:07:41;5.82;;;3.40;;
44328;SDS011;30039;51.462;6.892;2022-08-19T15:10:27;5.45;;;3.90;;
44328;SDS011;30039;51.462;6.892;2022-08-19T15:13:13;6.80;;;3.58;;
44328;SDS011;30039;51.462;6.892;2022-08-19T15:15:59;6.47;;;3.08;;
44328;SDS011;30039;51.462;6.892;2022-08-19T15:18:45;4.15;;;2.90;;
44328;SDS011;30039;51.462;6.892;2022-08-19T15:21:31;6.78;;;3.80;;
44328;SDS011;30039;51.462;6.892;2022-08-19T15:24:22;5.30;;;3.42;;
44328;SDS011;30039;51.462;6.892;2022-08-19T15:27:18;5.00;;;2.93;;
44328;SDS011;30039;51.462;6.892;2022-08-19T15:30:03;5.40;;;3.03;;
44328;SDS011;30039;51.462;6.892;2022-08-19T15:32:49;3.50;;;2.83;;
44328;SDS011;30039;51.462;6.892;2022-08-19T15:35:37;3.58;;;2.75;;
44328;SDS011;30039;51.462;6.892;2022-08-19T15:38:25;4.38;;;3.10;;
44328;SDS011;30039;51.462;6.892;2022-08-19T15:41:17;6.03;;;2.95;;
44328;SDS011;30039;51.462;6.892;2022-08-19T15:44:11;4.22;;;3.08;;
44328;SDS011;30039;51.462;6.892;2022-08-19T15:46:57;5.72;;;3.30;;
44328;SDS011;30039;51.462;6.892;2022-08-19T15:49:43;6.00;;;3.70;;
44328;SDS011;30039;51.462;6.892;2022-08-19T15:52:49;6.90;;;4.60;;
44328;SDS011;30039;51.462;6.892;2022-08-19T15:55:42;15.13;;;11.75;;
44328;SDS011;30039;51.462;6.892;2022-08-19T16:01:53;9.02;;;4.70;;
44328;SDS011;30039;51.462;6.892;2022-08-19T16:08:02;6.82;;;4.65;;
44328;SDS011;30039;51.462;6.892;2022-08-19T16:10:49;6.82;;;4.80;;
44328;SDS011;30039;51.462;6.892;2022-08-19T16:13:46;6.55;;;4.65;;
44328;SDS011;30039;51.462;6.892;2022-08-19T16:16:39;6.82;;;4.18;;
44328;SDS011;30039;51.462;6.892;2022-08-19T16:19:25;7.82;;;4.43;;
44328;SDS011;30039;51.462;6.892;2022-08-19T16:22:17;7.25;;;4.30;;
44328;SDS011;30039;51.462;6.892;2022-08-19T16:25:03;7.30;;;4.93;;
44328;SDS011;30039;51.462;6.892;2022-08-19T16:27:49;7.95;;;5.13;;
44328;SDS011;30039;51.462;6.892;2022-08-19T16:30:40;9.52;;;5.30;;
44328;SDS011;30039;51.462;6.892;2022-08-19T16:33:32;10.02;;;5.38;;
44328;SDS011;30039;51.462;6.892;2022-08-19T16:36:18;9.48;;;6.13;;
44328;SDS011;30039;51.462;6.892;2022-08-19T16:39:11;12.23;;;7.57;;
44328;SDS011;30039;51.462;6.892;2022-08-19T16:42:00;10.82;;;6.30;;
44328;SDS011;30039;51.462;6.892;2022-08-19T16:44:49;12.13;;;7.22;;
44328;SDS011;30039;51.462;6.892;2022-08-19T16:50:47;12.18;;;7.80;;
44328;SDS011;30039;51.462;6.892;2022-08-19T16:53:36;14.63;;;7.68;;
44328;SDS011;30039;51.462;6.892;2022-08-19T16:56:35;11.52;;;7.47;;
44328;SDS011;30039;51.462;6.892;2022-08-19T16:59:21;10.80;;;6.90;;
44328;SDS011;30039;51.462;6.892;2022-08-19T17:02:09;12.38;;;7.28;;
44328;SDS011;30039;51.462;6.892;2022-08-19T17:04:55;11.88;;;7.15;;
44328;SDS011;30039;51.462;6.892;2022-08-19T17:07:42;10.57;;;6.90;;
44328;SDS011;30039;51.462;6.892;2022-08-19T17:10:28;9.95;;;6.43;;
44328;SDS011;30039;51.462;6.892;2022-08-19T17:13:15;11.43;;;6.68;;
44328;SDS011;30039;51.462;6.892;2022-08-19T17:16:03;10.88;;;6.18;;
44328;SDS011;30039;51.462;6.892;2022-08-19T17:18:53;8.82;;;6.55;;
44328;SDS011;30039;51.462;6.892;2022-08-19T17:21:39;9.45;;;5.38;;
44328;SDS011;30039;51.462;6.892;2022-08-19T17:24:33;10.27;;;6.20;;
44328;SDS011;30039;51.462;6.892;2022-08-19T17:27:19;8.15;;;6.07;;
44328;SDS011;30039;51.462;6.892;2022-08-19T17:30:08;7.70;;;5.75;;
44328;SDS011;30039;51.462;6.892;2022-08-19T17:32:53;10.73;;;5.88;;